Time;durP1;ratioP1;P1;durP2;ratioP2;P2;SDS_P1;SDS_P2;PMS_P1;PMS_P2;Temp;Humidity;BMP_temperature;BMP_pressure;BME280_temperature;BME280_humidity;BME280_pressure;Samples;Min_cycle;Max_cycle;Signal;HPM_P1;HPM_P2
2023/07/29 00:02:00;;;;;;;0.00;0.00;;;19.60;99.90;;;;;;5092859;28;20028;-77
2023/07/29 00:04:25;;;;;;;0.00;0.00;;;19.50;99.90;;;;;;5091416;28;20024;-76
2023/07/29 00:06:51;;;;;;;0.13;0.13;;;19.70;99.90;;;;;;5091254;28;20024;-77
2023/07/29 00:09:17;;;;;;;0.00;0.00;;;19.30;99.90;;;;;;5092728;28;20434;-76
2023/07/29 00:11:42;;;;;;;0.00;0.00;;;19.30;99.90;;;;;;5092690;28;20027;-76
2023/07/29 00:14:08;;;;;;;0.00;0.00;;;19.40;99.90;;;;;;5092750;28;20086;-77
2023/07/29 00:16:34;;;;;;;0.10;0.10;;;19.30;99.90;;;;;;5092685;28;20078;-77
2023/07/29 00:18:59;;;;;;;0.00;0.00;;;19.50;99.90;;;;;;5092909;28;20047;-77
2023/07/29 00:21:25;;;;;;;1.45;0.30;;;19.40;99.90;;;;;;5092342;28;20056;-77
2023/07/29 00:23:51;;;;;;;1.35;0.95;;;19.20;99.90;;;;;;5092576;28;20031;-76
2023/07/29 00:26:17;;;;;;;0.00;0.00;;;19.40;99.90;;;;;;5092555;28;20414;-72
2023/07/29 00:28:43;;;;;;;1.55;0.20;;;19.60;99.90;;;;;;5092679;28;20115;-76
2023/07/29 00:31:08;;;;;;;0.80;0.30;;;19.60;99.90;;;;;;5091273;28;20034;-76
2023/07/29 00:33:34;;;;;;;0.32;0.32;;;19.60;99.90;;;;;;5090946;28;20024;-76
2023/07/29 00:36:02;;;;;;;0.52;0.45;;;19.70;99.90;;;;;;5091072;28;20073;-77
2023/07/29 00:38:28;;;;;;;0.57;0.30;;;19.60;99.90;;;;;;5090955;28;20040;-77
2023/07/29 00:40:56;;;;;;;0.57;0.57;;;19.60;99.90;;;;;;5078276;28;20032;-77
2023/07/29 00:43:22;;;;;;;0.28;0.28;;;19.10;99.90;;;;;;5075543;28;20087;-76
2023/07/29 00:45:48;;;;;;;0.10;0.10;;;18.80;99.90;;;;;;5081344;28;20020;-77
2023/07/29 00:48:14;;;;;;;0.00;0.00;;;18.80;99.90;;;;;;5081721;28;20032;-76
2023/07/29 00:50:40;;;;;;;0.00;0.00;;;18.90;99.90;;;;;;5087160;28;20024;-76
2023/07/29 00:53:06;;;;;;;0.05;0.05;;;19.10;99.90;;;;;;5091071;28;20074;-76
2023/07/29 00:55:32;;;;;;;0.00;0.00;;;19.20;99.90;;;;;;5087681;28;20132;-76
2023/07/29 00:57:58;;;;;;;0.40;0.35;;;19.10;99.90;;;;;;5077246;28;20035;-77
2023/07/29 01:00:25;;;;;;;0.10;0.10;;;19.00;99.90;;;;;;5090989;28;20024;-76
2023/07/29 01:02:52;;;;;;;0.10;0.10;;;18.80;99.90;;;;;;5092491;28;20089;-76
2023/07/29 01:05:19;;;;;;;0.00;0.00;;;18.70;99.90;;;;;;5094639;28;20020;-77
2023/07/29 01:07:50;;;;;;;0.30;0.30;;;18.70;99.90;;;;;;5094556;28;20028;-76
2023/07/29 01:10:45;;;;;;;3.33;1.55;;;18.60;99.90;;;;;;5095964;28;20035;-76
2023/07/29 01:13:41;;;;;;;0.10;0.10;;;18.60;99.90;;;;;;5074953;28;20109;-76
2023/07/29 01:16:17;;;;;;;0.00;0.00;;;18.60;99.90;;;;;;5088411;28;20028;-76
2023/07/29 01:18:47;;;;;;;0.00;0.00;;;18.50;99.90;;;;;;5082627;28;20042;-76
2023/07/29 01:21:15;;;;;;;1.23;0.27;;;18.60;99.90;;;;;;5094201;28;20423;-73
2023/07/29 01:23:41;;;;;;;0.00;0.00;;;18.60;99.90;;;;;;5095509;28;20012;-76
2023/07/29 01:26:06;;;;;;;0.00;0.00;;;18.80;99.90;;;;;;5094419;28;20046;-77
2023/07/29 01:28:33;;;;;;;0.08;0.08;;;18.60;99.90;;;;;;5095398;28;20016;-75
2023/07/29 01:31:23;;;;;;;0.00;0.00;;;18.60;99.90;;;;;;5094184;28;20021;-77
2023/07/29 01:33:57;;;;;;;1.35;0.63;;;18.50;99.90;;;;;;5093616;28;20036;-76
2023/07/29 01:36:27;;;;;;;0.00;0.00;;;18.50;99.90;;;;;;5094113;28;20579;-76
2023/07/29 01:38:56;;;;;;;0.00;0.00;;;18.60;99.90;;;;;;5094030;28;20028;-75
2023/07/29 01:41:22;;;;;;;0.00;0.00;;;18.80;99.90;;;;;;5094142;28;20114;-72
2023/07/29 01:43:49;;;;;;;0.08;0.08;;;18.60;99.90;;;;;;5093785;28;20028;-76
2023/07/29 01:46:15;;;;;;;1.25;0.30;;;18.80;99.90;;;;;;5094041;28;20043;-76
2023/07/29 01:48:41;;;;;;;0.00;0.00;;;18.50;99.90;;;;;;5079176;28;20025;-76
2023/07/29 01:51:07;;;;;;;1.17;0.45;;;18.60;99.90;;;;;;5095116;28;20174;-77
2023/07/29 01:53:33;;;;;;;0.00;0.00;;;18.60;99.90;;;;;;5094938;28;20537;-75
2023/07/29 01:55:59;;;;;;;0.00;0.00;;;18.80;99.90;;;;;;5093671;28;20119;-76
2023/07/29 01:58:25;;;;;;;0.00;0.00;;;18.70;99.90;;;;;;5093630;28;20380;-75
2023/07/29 02:00:51;;;;;;;0.00;0.00;;;18.60;99.90;;;;;;5093319;28;20024;-76
2023/07/29 02:03:17;;;;;;;0.00;0.00;;;18.80;99.90;;;;;;5093267;28;20036;-76
2023/07/29 02:05:44;;;;;;;0.10;0.10;;;18.50;99.90;;;;;;5076485;28;20056;-75
2023/07/29 02:08:10;;;;;;;0.20;0.20;;;18.50;99.90;;;;;;5093681;28;20032;-77
2023/07/29 02:10:37;;;;;;;1.55;1.02;;;18.30;99.90;;;;;;5093272;28;20115;-76
2023/07/29 02:13:04;;;;;;;0.00;0.00;;;18.20;99.90;;;;;;5094886;28;20127;-75
2023/07/29 02:15:29;;;;;;;0.00;0.00;;;18.00;99.90;;;;;;5093338;28;20031;-76
2023/07/29 02:17:55;;;;;;;0.10;0.10;;;18.10;99.90;;;;;;5093002;28;20031;-76
2023/07/29 02:20:21;;;;;;;0.22;0.22;;;18.10;99.90;;;;;;5094452;28;20125;-76
2023/07/29 02:22:49;;;;;;;0.10;0.10;;;18.00;99.90;;;;;;5093184;28;20077;-77
2023/07/29 02:25:15;;;;;;;0.57;0.40;;;17.90;99.90;;;;;;5093078;28;20028;-75
2023/07/29 02:27:40;;;;;;;0.85;0.85;;;18.00;99.90;;;;;;5093102;28;20111;-76
2023/07/29 02:30:09;;;;;;;0.20;0.20;;;17.80;99.90;;;;;;5075073;28;20449;-76
2023/07/29 02:32:35;;;;;;;0.50;0.50;;;17.80;99.90;;;;;;5085310;28;20060;-76
2023/07/29 02:35:01;;;;;;;0.10;0.10;;;17.70;99.90;;;;;;5087320;28;20630;-76
2023/07/29 02:37:26;;;;;;;0.30;0.30;;;17.70;99.90;;;;;;5076205;28;20031;-71
2023/07/29 02:39:52;;;;;;;0.55;0.55;;;17.70;99.90;;;;;;5075369;28;20028;-76
2023/07/29 02:42:18;;;;;;;1.55;0.30;;;17.80;99.90;;;;;;5071109;28;20516;-76
2023/07/29 02:44:43;;;;;;;2.33;1.10;;;17.80;99.90;;;;;;5071915;28;20487;-75
2023/07/29 02:47:09;;;;;;;0.77;0.60;;;17.80;99.90;;;;;;5072183;28;20025;-77
2023/07/29 02:49:35;;;;;;;0.47;0.47;;;17.80;99.90;;;;;;5082288;28;20372;-76
2023/07/29 02:52:00;;;;;;;1.90;0.55;;;17.60;99.90;;;;;;5092421;28;20063;-76
2023/07/29 02:54:26;;;;;;;0.10;0.10;;;17.60;99.90;;;;;;5093916;28;20503;-76
2023/07/29 02:56:53;;;;;;;0.45;0.45;;;17.60;99.90;;;;;;5092858;28;20030;-77
2023/07/29 02:59:19;;;;;;;0.10;0.10;;;17.60;99.90;;;;;;5086685;28;20477;-75
2023/07/29 03:01:45;;;;;;;1.58;0.50;;;17.60;99.90;;;;;;5075306;28;20416;-76
2023/07/29 03:04:12;;;;;;;0.10;0.10;;;17.60;99.90;;;;;;5080448;28;20116;-75
2023/07/29 03:06:38;;;;;;;0.20;0.20;;;17.60;99.90;;;;;;5092290;28;20042;-74
2023/07/29 03:09:04;;;;;;;0.75;0.57;;;17.70;99.90;;;;;;5090835;28;20539;-73
2023/07/29 03:11:31;;;;;;;0.93;0.63;;;17.70;99.90;;;;;;5092118;28;20031;-75
2023/07/29 03:13:57;;;;;;;0.10;0.10;;;17.60;99.90;;;;;;5091889;28;20055;-75
2023/07/29 03:16:22;;;;;;;0.40;0.40;;;17.70;99.90;;;;;;5090973;28;20058;-74
2023/07/29 03:18:53;;;;;;;0.43;0.43;;;17.70;99.90;;;;;;5092223;28;20051;-76
2023/07/29 03:21:19;;;;;;;0.50;0.50;;;17.70;99.90;;;;;;5091941;28;20469;-75
2023/07/29 03:23:44;;;;;;;1.60;1.02;;;17.80;99.90;;;;;;5092007;28;20055;-76
2023/07/29 03:26:10;;;;;;;0.10;0.10;;;17.80;99.90;;;;;;5092771;28;20051;-76
2023/07/29 03:28:39;;;;;;;0.05;0.05;;;17.60;99.90;;;;;;5091734;28;20543;-75
2023/07/29 03:31:05;;;;;;;0.05;0.03;;;17.50;99.90;;;;;;5091795;28;20027;-72
2023/07/29 03:33:31;;;;;;;0.10;0.10;;;17.50;99.90;;;;;;5091463;28;20036;-73
2023/07/29 03:35:58;;;;;;;0.47;0.47;;;17.60;99.90;;;;;;5091986;28;20024;-74
2023/07/29 03:38:23;;;;;;;0.20;0.20;;;17.70;99.90;;;;;;5075015;28;20031;-75
2023/07/29 03:40:50;;;;;;;0.38;0.38;;;17.90;99.90;;;;;;5091713;28;20024;-75
2023/07/29 03:43:15;;;;;;;1.08;0.63;;;17.60;99.90;;;;;;5091178;28;20111;-73
2023/07/29 03:45:41;;;;;;;0.00;0.00;;;17.50;99.90;;;;;;5091520;28;20024;-75
2023/07/29 03:48:08;;;;;;;1.08;0.45;;;17.40;99.90;;;;;;5080789;28;20028;-76
2023/07/29 03:50:35;;;;;;;0.00;0.00;;;17.40;99.90;;;;;;5071182;28;20012;-76
2023/07/29 03:53:02;;;;;;;0.73;0.73;;;17.60;99.90;;;;;;5091420;28;20032;-76
2023/07/29 03:55:29;;;;;;;1.13;0.75;;;17.50;99.90;;;;;;5092738;28;20039;-75
2023/07/29 03:57:57;;;;;;;0.38;0.10;;;17.60;99.90;;;;;;5091050;28;20016;-74
2023/07/29 04:00:22;;;;;;;0.10;0.10;;;17.60;99.90;;;;;;5074574;28;20123;-76
2023/07/29 04:02:48;;;;;;;1.70;1.35;;;17.80;99.90;;;;;;5091051;28;20110;-76
2023/07/29 04:05:14;;;;;;;1.35;0.85;;;17.50;99.90;;;;;;5091222;28;20388;-76
2023/07/29 04:07:40;;;;;;;0.10;0.10;;;17.40;99.90;;;;;;5087515;28;20034;-75
2023/07/29 04:10:06;;;;;;;0.65;0.15;;;17.50;99.90;;;;;;5091458;28;20371;-73
2023/07/29 04:12:32;;;;;;;0.38;0.38;;;17.40;99.90;;;;;;5090779;28;20043;-74
2023/07/29 04:14:58;;;;;;;0.05;0.05;;;17.40;99.90;;;;;;5091378;28;20384;-72
2023/07/29 04:17:24;;;;;;;0.00;0.00;;;17.40;99.90;;;;;;5091120;28;20032;-74
2023/07/29 04:19:49;;;;;;;0.40;0.40;;;17.40;99.90;;;;;;5090553;28;20016;-74
2023/07/29 04:22:17;;;;;;;1.15;0.57;;;17.40;99.90;;;;;;5090424;28;20024;-75
2023/07/29 04:24:42;;;;;;;5.35;0.85;;;17.30;99.90;;;;;;5091957;28;20495;-75
2023/07/29 04:27:08;;;;;;;3.15;1.70;;;17.40;99.90;;;;;;5090606;28;20036;-74
2023/07/29 04:29:36;;;;;;;1.65;0.73;;;17.50;99.90;;;;;;5092398;28;20017;-75
2023/07/29 04:32:05;;;;;;;0.77;0.77;;;17.40;99.90;;;;;;5090943;28;20035;-75
2023/07/29 04:34:31;;;;;;;0.00;0.00;;;17.40;99.90;;;;;;5090957;28;20115;-75
2023/07/29 04:36:58;;;;;;;0.10;0.10;;;17.50;99.90;;;;;;5091847;28;20028;-75
2023/07/29 04:39:24;;;;;;;0.20;0.20;;;17.60;99.90;;;;;;5095015;28;20068;-73
2023/07/29 04:41:49;;;;;;;0.32;0.32;;;17.80;99.90;;;;;;5096099;28;20032;-75
2023/07/29 04:44:15;;;;;;;0.10;0.10;;;17.70;99.90;;;;;;5095012;28;20024;-74
2023/07/29 04:46:41;;;;;;;0.28;0.28;;;17.80;99.90;;;;;;5095085;28;20058;-75
2023/07/29 04:49:07;;;;;;;0.38;0.38;;;17.80;99.90;;;;;;5082061;28;20028;-75
2023/07/29 04:51:33;;;;;;;0.03;0.03;;;17.50;99.90;;;;;;5095076;28;20024;-73
2023/07/29 04:53:58;;;;;;;0.00;0.00;;;17.60;99.90;;;;;;5096032;28;20047;-74
2023/07/29 04:56:25;;;;;;;0.00;0.00;;;17.60;99.90;;;;;;5094611;28;20021;-76
2023/07/29 04:58:51;;;;;;;0.30;0.17;;;17.40;99.90;;;;;;5094455;28;20400;-75
2023/07/29 05:01:16;;;;;;;4.10;0.80;;;17.40;99.90;;;;;;5086025;28;20013;-75
2023/07/29 05:03:42;;;;;;;0.00;0.00;;;17.30;99.90;;;;;;5089191;28;20560;-76
2023/07/29 05:06:08;;;;;;;0.00;0.00;;;17.40;99.90;;;;;;5076688;28;20400;-74
2023/07/29 05:08:34;;;;;;;0.32;0.32;;;17.40;99.90;;;;;;5074125;28;20049;-76
2023/07/29 05:11:00;;;;;;;0.38;0.38;;;17.40;99.90;;;;;;5075151;28;20025;-75
2023/07/29 05:13:26;;;;;;;0.35;0.35;;;17.40;99.90;;;;;;5075400;28;20032;-75
2023/07/29 05:15:51;;;;;;;0.43;0.43;;;17.30;99.90;;;;;;5057406;28;20020;-76
2023/07/29 05:18:18;;;;;;;0.43;0.30;;;17.50;99.90;;;;;;5074174;28;20400;-77
2023/07/29 05:20:44;;;;;;;0.10;0.10;;;17.50;99.90;;;;;;5057621;28;20027;-75
2023/07/29 05:23:10;;;;;;;0.90;0.73;;;17.50;99.90;;;;;;5075218;28;20358;-76
2023/07/29 05:25:35;;;;;;;0.10;0.10;;;17.50;99.90;;;;;;5073621;28;20368;-75
2023/07/29 05:28:02;;;;;;;0.03;0.03;;;17.40;99.90;;;;;;5073879;28;20028;-76
2023/07/29 05:30:30;;;;;;;0.43;0.30;;;17.50;99.90;;;;;;5075158;28;20024;-76
2023/07/29 05:33:00;;;;;;;4.10;0.77;;;17.40;99.90;;;;;;5073893;28;20455;-76
2023/07/29 05:35:26;;;;;;;1.00;0.05;;;17.40;99.90;;;;;;5073834;28;20027;-76
2023/07/29 05:37:52;;;;;;;2.10;1.10;;;17.50;99.90;;;;;;5073826;28;20388;-75
2023/07/29 05:40:18;;;;;;;0.20;0.17;;;17.50;99.90;;;;;;5073271;28;20101;-76
2023/07/29 05:42:45;;;;;;;0.28;0.28;;;17.50;99.90;;;;;;5073745;28;20021;-74
2023/07/29 05:45:11;;;;;;;0.00;0.00;;;17.50;99.90;;;;;;5073631;28;20021;-77
2023/07/29 05:47:37;;;;;;;0.47;0.47;;;17.60;99.90;;;;;;5073219;28;20016;-77
2023/07/29 05:50:04;;;;;;;0.00;0.00;;;17.90;99.90;;;;;;5087548;28;20516;-77
2023/07/29 05:52:30;;;;;;;0.20;0.20;;;17.80;99.90;;;;;;5093659;28;20022;-76
2023/07/29 05:54:56;;;;;;;0.98;0.57;;;17.80;99.90;;;;;;5093452;28;20035;-77
2023/07/29 05:57:22;;;;;;;0.47;0.47;;;17.70;99.90;;;;;;5094840;28;20404;-75
2023/07/29 05:59:48;;;;;;;0.00;0.00;;;17.80;99.90;;;;;;5093468;28;20020;-76
2023/07/29 06:02:13;;;;;;;0.00;0.00;;;17.80;99.90;;;;;;5094715;28;20055;-73
2023/07/29 06:04:39;;;;;;;0.28;0.28;;;18.00;99.90;;;;;;5093479;28;20035;-73
2023/07/29 06:07:06;;;;;;;0.43;0.43;;;18.30;99.90;;;;;;5090988;28;20047;-75
2023/07/29 06:09:32;;;;;;;0.20;0.20;;;18.20;99.90;;;;;;5082056;28;20469;-75
2023/07/29 06:11:58;;;;;;;0.05;0.05;;;18.40;99.90;;;;;;5069011;28;20028;-76
2023/07/29 06:14:24;;;;;;;1.45;0.45;;;18.40;99.90;;;;;;5074781;28;20111;-75
2023/07/29 06:16:49;;;;;;;0.65;0.50;;;18.70;99.90;;;;;;5079116;28;20051;-76
2023/07/29 06:19:15;;;;;;;0.17;0.17;;;19.00;99.90;;;;;;5065907;28;20028;-76
2023/07/29 06:21:42;;;;;;;0.50;0.50;;;19.10;99.90;;;;;;5078805;28;20012;-75
2023/07/29 06:24:07;;;;;;;4.43;1.50;;;19.00;99.90;;;;;;5078822;28;20029;-76
2023/07/29 06:26:33;;;;;;;3.17;1.00;;;18.50;99.90;;;;;;5078531;28;20031;-74
2023/07/29 06:28:59;;;;;;;1.85;1.13;;;18.40;99.90;;;;;;5075237;28;20432;-74
2023/07/29 06:31:24;;;;;;;0.00;0.00;;;18.40;99.90;;;;;;5080518;28;20020;-75
2023/07/29 06:33:50;;;;;;;0.13;0.13;;;18.60;99.90;;;;;;5079182;28;20047;-76
2023/07/29 06:36:16;;;;;;;0.75;0.73;;;18.80;99.90;;;;;;5076913;28;20070;-75
2023/07/29 06:38:41;;;;;;;0.73;0.63;;;18.80;99.90;;;;;;5078498;28;20456;-75
2023/07/29 06:41:07;;;;;;;1.45;0.40;;;18.90;99.90;;;;;;5073855;28;20024;-76
2023/07/29 06:43:33;;;;;;;0.38;0.38;;;19.20;99.90;;;;;;5079612;28;20063;-76
2023/07/29 06:45:59;;;;;;;1.13;0.47;;;18.90;99.90;;;;;;5078422;28;20016;-75
2023/07/29 06:48:24;;;;;;;0.30;0.30;;;19.20;99.90;;;;;;5074907;28;20030;-75
2023/07/29 06:50:50;;;;;;;0.20;0.20;;;19.30;99.90;;;;;;5092706;28;20020;-75
2023/07/29 06:53:16;;;;;;;1.00;0.65;;;19.30;99.90;;;;;;5091326;28;20048;-77
2023/07/29 06:55:43;;;;;;;0.10;0.10;;;19.30;99.90;;;;;;5084976;28;20035;-75
2023/07/29 06:58:09;;;;;;;0.10;0.10;;;19.20;99.90;;;;;;5089979;28;20063;-74
2023/07/29 07:00:35;;;;;;;0.85;0.75;;;19.10;99.90;;;;;;5082891;28;20093;-75
2023/07/29 07:03:01;;;;;;;0.88;0.40;;;19.00;99.90;;;;;;5092654;28;20032;-75
2023/07/29 07:05:26;;;;;;;0.20;0.20;;;19.10;99.90;;;;;;5082154;28;20040;-74
2023/07/29 07:07:52;;;;;;;0.45;0.10;;;19.00;99.90;;;;;;5079972;28;20461;-75
2023/07/29 07:10:18;;;;;;;0.43;0.35;;;19.10;99.90;;;;;;5082785;28;20095;-75
2023/07/29 07:12:44;;;;;;;1.30;0.55;;;19.10;99.90;;;;;;5077058;28;20036;-76
2023/07/29 07:15:10;;;;;;;0.10;0.10;;;19.00;99.90;;;;;;5072629;28;20469;-75
2023/07/29 07:17:35;;;;;;;0.00;0.00;;;19.20;99.90;;;;;;5073613;28;20040;-75
2023/07/29 07:20:01;;;;;;;1.75;1.23;;;19.10;99.90;;;;;;5082276;28;20017;-73
2023/07/29 07:22:27;;;;;;;0.22;0.22;;;19.10;99.90;;;;;;5082626;28;20089;-75
2023/07/29 07:24:53;;;;;;;0.82;0.50;;;19.10;99.90;;;;;;5075125;28;20029;-75
2023/07/29 07:27:18;;;;;;;0.35;0.20;;;19.20;99.90;;;;;;5075167;28;20082;-75
2023/07/29 07:29:44;;;;;;;0.47;0.35;;;19.10;99.90;;;;;;5072061;28;20115;-74
2023/07/29 07:32:10;;;;;;;0.65;0.10;;;19.20;99.90;;;;;;5082404;28;20102;-75
2023/07/29 07:34:35;;;;;;;0.80;0.80;;;19.40;99.90;;;;;;5080261;28;20028;-76
2023/07/29 07:37:01;;;;;;;0.75;0.40;;;19.50;99.90;;;;;;5077523;28;20526;-73
2023/07/29 07:39:27;;;;;;;0.13;0.10;;;19.60;99.90;;;;;;5084096;28;20039;-72
2023/07/29 07:41:52;;;;;;;0.00;0.00;;;19.60;99.90;;;;;;5076297;28;20032;-72
2023/07/29 07:44:19;;;;;;;0.10;0.10;;;19.70;99.90;;;;;;5076579;28;20024;-76
2023/07/29 07:46:45;;;;;;;0.30;0.30;;;19.80;99.90;;;;;;5074616;28;20062;-75
2023/07/29 07:49:12;;;;;;;1.67;0.70;;;19.80;99.90;;;;;;5079923;28;20012;-70
2023/07/29 07:51:38;;;;;;;0.38;0.30;;;19.60;99.90;;;;;;5092004;28;20047;-75
2023/07/29 07:54:06;;;;;;;0.45;0.45;;;19.80;99.90;;;;;;5091688;28;20035;-75
2023/07/29 07:56:32;;;;;;;0.00;0.00;;;20.20;99.90;;;;;;5091871;28;20026;-75
2023/07/29 07:58:57;;;;;;;0.20;0.20;;;20.40;99.90;;;;;;5091806;28;20435;-75
2023/07/29 08:01:23;;;;;;;0.25;0.25;;;20.30;99.90;;;;;;5090458;28;20508;-75
2023/07/29 08:03:48;;;;;;;0.20;0.20;;;20.60;99.90;;;;;;5084490;28;20024;-74
2023/07/29 08:06:14;;;;;;;1.15;0.47;;;20.70;99.90;;;;;;5090082;28;20043;-76
2023/07/29 08:08:40;;;;;;;0.13;0.13;;;20.70;99.90;;;;;;5085053;28;20095;-76
2023/07/29 08:11:05;;;;;;;0.75;0.47;;;20.50;99.90;;;;;;5092172;28;20028;-74
2023/07/29 08:13:31;;;;;;;0.00;0.00;;;20.50;99.90;;;;;;5095687;28;20044;-75
2023/07/29 08:15:57;;;;;;;0.15;0.13;;;20.70;99.90;;;;;;5095886;28;20023;-73
2023/07/29 08:18:23;;;;;;;0.00;0.00;;;20.90;99.90;;;;;;5095247;28;20524;-73
2023/07/29 08:20:57;;;;;;;0.28;0.28;;;21.30;99.90;;;;;;5094716;28;20028;-73
2023/07/29 08:23:25;;;;;;;0.05;0.05;;;21.30;99.90;;;;;;5069044;28;20488;-72
2023/07/29 08:25:56;;;;;;;0.85;0.25;;;21.10;99.90;;;;;;5078058;28;20028;-73
2023/07/29 08:28:24;;;;;;;1.20;0.77;;;21.10;99.90;;;;;;5084785;28;20473;-73
2023/07/29 08:30:50;;;;;;;0.00;0.00;;;21.00;99.90;;;;;;5078421;28;20087;-72
2023/07/29 08:33:16;;;;;;;0.63;0.22;;;21.00;99.90;;;;;;5077653;28;20557;-73
2023/07/29 08:35:42;;;;;;;0.05;0.05;;;21.00;99.90;;;;;;5079212;28;20052;-73
2023/07/29 08:38:07;;;;;;;0.30;0.20;;;20.70;99.90;;;;;;5082663;28;20037;-73
2023/07/29 08:40:37;;;;;;;0.10;0.10;;;20.60;99.90;;;;;;5084460;28;20099;-72
2023/07/29 08:43:05;;;;;;;0.88;0.50;;;20.80;99.90;;;;;;5081837;28;20025;-72
2023/07/29 08:45:36;;;;;;;0.00;0.00;;;20.70;99.90;;;;;;5074744;28;20028;-72
2023/07/29 08:48:07;;;;;;;0.00;0.00;;;21.00;99.90;;;;;;5076510;28;20046;-74
2023/07/29 08:50:35;;;;;;;0.03;0.03;;;21.60;99.90;;;;;;5078181;28;20044;-72
2023/07/29 08:53:02;;;;;;;0.38;0.38;;;21.40;99.90;;;;;;5082935;28;20035;-73
2023/07/29 08:55:30;;;;;;;0.30;0.30;;;21.80;99.90;;;;;;5083438;28;20091;-73
2023/07/29 08:57:57;;;;;;;0.10;0.10;;;22.20;99.90;;;;;;5078436;28;20793;-72
2023/07/29 09:00:23;;;;;;;3.03;0.57;;;22.30;99.90;;;;;;5078258;28;20074;-72
2023/07/29 09:02:49;;;;;;;0.00;0.00;;;22.50;99.90;;;;;;5081756;28;20491;-72
2023/07/29 09:05:16;;;;;;;0.20;0.20;;;22.30;99.90;;;;;;5076673;28;20025;-73
2023/07/29 09:07:44;;;;;;;0.15;0.15;;;22.30;99.90;;;;;;5081072;28;20104;-73
2023/07/29 09:10:12;;;;;;;0.30;0.28;;;22.00;99.90;;;;;;5083758;28;20035;-73
2023/07/29 09:12:39;;;;;;;0.00;0.00;;;21.90;99.90;;;;;;5087844;28;20024;-72
2023/07/29 09:15:05;;;;;;;0.65;0.60;;;21.90;99.90;;;;;;5074660;28;20036;-73
2023/07/29 09:17:34;;;;;;;0.10;0.10;;;22.20;99.90;;;;;;5077231;28;20024;-72
2023/07/29 09:20:00;;;;;;;0.00;0.00;;;22.20;99.90;;;;;;5073450;28;20033;-72
2023/07/29 09:22:27;;;;;;;0.00;0.00;;;22.40;99.90;;;;;;5084802;28;20014;-73
2023/07/29 09:24:53;;;;;;;1.55;0.45;;;22.50;99.90;;;;;;5076909;28;20032;-73
2023/07/29 09:27:31;;;;;;;1.27;1.05;;;22.90;99.90;;;;;;5079392;28;20031;-73
2023/07/29 09:29:57;;;;;;;0.30;0.30;;;22.40;99.90;;;;;;5076142;28;20116;-73
2023/07/29 09:32:24;;;;;;;1.17;0.82;;;22.50;99.90;;;;;;5086023;28;20562;-73
2023/07/29 09:34:51;;;;;;;0.03;0.03;;;22.30;99.90;;;;;;5079751;28;20094;-73
2023/07/29 09:37:20;;;;;;;1.08;0.40;;;22.30;99.90;;;;;;5077375;28;20461;-72
2023/07/29 09:39:49;;;;;;;1.15;0.80;;;22.30;99.90;;;;;;5077803;28;20423;-73
2023/07/29 09:42:20;;;;;;;0.75;0.63;;;21.80;99.90;;;;;;5077231;28;20542;-73
2023/07/29 09:44:46;;;;;;;0.80;0.80;;;21.50;99.90;;;;;;5079201;28;20039;-73
2023/07/29 09:47:22;;;;;;;0.43;0.35;;;21.50;99.90;;;;;;5074091;28;20031;-73
2023/07/29 09:49:48;;;;;;;4.28;0.90;;;21.50;99.90;;;;;;5084000;28;20111;-73
2023/07/29 09:52:19;;;;;;;0.10;0.10;;;21.50;99.90;;;;;;5094969;28;20447;-73
2023/07/29 09:54:46;;;;;;;0.30;0.20;;;21.60;99.90;;;;;;5093749;28;20040;-73
2023/07/29 09:57:18;;;;;;;0.75;0.68;;;21.60;99.90;;;;;;5094803;28;20059;-73
2023/07/29 09:59:52;;;;;;;;;;;21.50;99.90;;;;;;5094903;28;20035;-73
2023/07/29 10:02:18;;;;;;;1.58;0.65;;;21.30;99.90;;;;;;5094502;28;19912;-73
2023/07/29 10:04:46;;;;;;;0.55;0.52;;;21.30;99.90;;;;;;5094735;28;20472;-75
2023/07/29 10:07:12;;;;;;;0.57;0.47;;;21.40;99.90;;;;;;5094849;28;20076;-75
2023/07/29 10:09:41;;;;;;;0.43;0.43;;;21.70;99.90;;;;;;5094481;28;20048;-75
2023/07/29 10:12:09;;;;;;;0.35;0.35;;;21.70;99.90;;;;;;5094854;28;20028;-75
2023/07/29 10:14:36;;;;;;;0.30;0.30;;;22.00;99.90;;;;;;5094223;28;20095;-75
2023/07/29 10:17:02;;;;;;;0.55;0.40;;;22.20;99.90;;;;;;5094586;28;20137;-76
2023/07/29 10:19:30;;;;;;;0.75;0.50;;;21.90;99.90;;;;;;5094160;28;20036;-75
2023/07/29 10:22:02;;;;;;;0.20;0.20;;;22.00;99.90;;;;;;5094329;28;20035;-75
2023/07/29 10:24:32;;;;;;;0.13;0.13;;;22.20;99.90;;;;;;5088831;28;20500;-75
2023/07/29 10:27:00;;;;;;;0.70;0.70;;;22.40;99.90;;;;;;5082768;28;20032;-72
2023/07/29 10:29:34;;;;;;;0.93;0.60;;;22.70;99.90;;;;;;5081000;28;20024;-72
2023/07/29 10:32:03;;;;;;;0.63;0.60;;;22.50;99.90;;;;;;5075402;28;20044;-73
2023/07/29 10:34:31;;;;;;;0.20;0.20;;;23.00;99.90;;;;;;5071910;28;20145;-72
2023/07/29 10:36:57;;;;;;;0.30;0.30;;;23.10;99.90;;;;;;5081633;28;20201;-72
2023/07/29 10:39:24;;;;;;;4.68;1.05;;;23.10;99.90;;;;;;5074631;28;20085;-71
2023/07/29 10:42:01;;;;;;;0.00;0.00;;;22.60;99.90;;;;;;5075974;28;20044;-73
2023/07/29 10:44:39;;;;;;;0.73;0.38;;;22.10;99.90;;;;;;5075082;28;20016;-76
2023/07/29 10:47:15;;;;;;;0.10;0.10;;;22.10;99.90;;;;;;5074239;28;20039;-76
2023/07/29 10:49:45;;;;;;;0.45;0.45;;;21.70;99.90;;;;;;5075747;28;20461;-76
2023/07/29 10:52:16;;;;;;;0.00;0.00;;;21.70;99.90;;;;;;5078380;28;20036;-71
2023/07/29 10:54:46;;;;;;;0.50;0.50;;;21.40;99.90;;;;;;5085245;28;20143;-69
2023/07/29 10:57:14;;;;;;;4.20;0.73;;;21.20;99.90;;;;;;5080197;28;20074;-74
2023/07/29 10:59:40;;;;;;;0.00;0.00;;;21.10;99.90;;;;;;5072978;28;20507;-70
2023/07/29 11:02:19;;;;;;;0.00;0.00;;;20.80;99.90;;;;;;5073720;28;20070;-71
2023/07/29 11:04:50;;;;;;;1.13;0.93;;;20.90;99.90;;;;;;5072210;28;20481;-77
2023/07/29 11:07:16;;;;;;;;;;;20.70;99.90;;;;;;5076104;28;20035;-72
2023/07/29 11:09:56;;;;;;;0.47;0.47;;;20.40;99.90;;;;;;5073982;28;19912;-77
2023/07/29 11:12:54;;;;;;;0.88;0.70;;;20.40;99.90;;;;;;5070141;28;20085;-73
2023/07/29 11:15:28;;;;;;;2.85;1.23;;;20.40;99.90;;;;;;5075378;28;20032;-77
2023/07/29 11:18:04;;;;;;;1.20;0.70;;;20.00;99.90;;;;;;5078988;28;20074;-77
2023/07/29 11:20:33;;;;;;;7.65;1.75;;;19.70;99.90;;;;;;5074653;28;20036;-76
2023/07/29 11:23:00;;;;;;;1.58;0.90;;;19.20;99.90;;;;;;5074836;28;20020;-80
2023/07/29 11:25:28;;;;;;;0.55;0.55;;;19.00;99.90;;;;;;5082964;28;20110;-79
2023/07/29 11:27:56;;;;;;;0.85;0.47;;;18.90;99.90;;;;;;5072913;28;20025;-78
2023/07/29 11:30:23;;;;;;;1.23;0.77;;;18.90;99.90;;;;;;5084657;28;20032;-78
2023/07/29 11:32:49;;;;;;;0.10;0.10;;;19.00;99.90;;;;;;5075586;28;20037;-78
2023/07/29 11:35:18;;;;;;;0.00;0.00;;;19.10;99.90;;;;;;5085472;28;20059;-77
2023/07/29 11:37:47;;;;;;;0.28;0.28;;;19.20;99.90;;;;;;5080120;28;20499;-77
2023/07/29 11:40:18;;;;;;;1.10;0.50;;;19.60;99.90;;;;;;5078747;28;20027;-78
2023/07/29 11:42:45;;;;;;;0.10;0.10;;;19.70;99.90;;;;;;5077147;28;20419;-74
2023/07/29 11:45:12;;;;;;;0.00;0.00;;;19.90;99.90;;;;;;5079759;28;20132;-77
2023/07/29 11:47:38;;;;;;;0.00;0.00;;;20.40;99.90;;;;;;5076398;28;20059;-76
2023/07/29 11:50:05;;;;;;;1.98;1.00;;;20.90;99.90;;;;;;5087362;28;20051;-78
2023/07/29 11:52:33;;;;;;;0.93;0.93;;;21.40;99.90;;;;;;5076027;28;20199;-78
2023/07/29 11:54:58;;;;;;;5.32;1.23;;;21.80;99.90;;;;;;5079433;28;20063;-77
2023/07/29 11:57:24;;;;;;;5.97;0.30;;;21.30;99.90;;;;;;5077571;28;20465;-79
2023/07/29 11:59:50;;;;;;;0.20;0.20;;;21.10;99.90;;;;;;5082636;28;20074;-74
2023/07/29 12:02:17;;;;;;;0.65;0.32;;;21.60;99.90;;;;;;5081601;28;20396;-80
2023/07/29 12:04:46;;;;;;;0.22;0.22;;;21.90;99.90;;;;;;5076510;28;20099;-78
2023/07/29 12:07:14;;;;;;;5.05;0.30;;;21.80;99.90;;;;;;5080411;28;20048;-78
2023/07/29 12:09:41;;;;;;;0.10;0.10;;;22.10;99.90;;;;;;5074683;28;20031;-78
2023/07/29 12:12:07;;;;;;;0.10;0.10;;;22.10;99.90;;;;;;5080730;28;20111;-77
2023/07/29 12:14:34;;;;;;;0.17;0.17;;;22.60;99.90;;;;;;5078049;28;20477;-77
2023/07/29 12:17:01;;;;;;;0.63;0.40;;;22.40;99.90;;;;;;5081707;28;20024;-78
2023/07/29 12:19:38;;;;;;;0.28;0.28;;;22.10;99.90;;;;;;5084210;28;20024;-77
2023/07/29 12:22:06;;;;;;;5.18;0.85;;;22.10;99.90;;;;;;5077869;28;20115;-78
2023/07/29 12:24:33;;;;;;;0.50;0.50;;;22.20;99.90;;;;;;5075852;28;20027;-76
2023/07/29 12:26:59;;;;;;;0.00;0.00;;;22.40;99.90;;;;;;5071489;28;20385;-76
2023/07/29 12:29:26;;;;;;;0.10;0.10;;;23.00;99.90;;;;;;5080194;28;20024;-75
2023/07/29 12:32:04;;;;;;;0.52;0.52;;;23.90;99.90;;;;;;5082227;28;20029;-77
2023/07/29 12:34:31;;;;;;;0.20;0.20;;;23.90;99.90;;;;;;5076379;28;20048;-76
2023/07/29 12:36:58;;;;;;;0.13;0.13;;;24.00;99.90;;;;;;5074004;28;20021;-77
2023/07/29 12:39:32;;;;;;;2.17;0.65;;;23.50;99.90;;;;;;5070870;28;20047;-76
2023/07/29 12:41:59;;;;;;;0.82;0.75;;;23.50;99.90;;;;;;5083481;28;20028;-76
2023/07/29 12:44:33;;;;;;;0.20;0.10;;;23.30;99.90;;;;;;5081800;28;21079;-76
2023/07/29 12:47:01;;;;;;;0.10;0.10;;;23.40;99.90;;;;;;5074974;28;20028;-76
2023/07/29 12:49:28;;;;;;;0.00;0.00;;;23.90;99.90;;;;;;5077282;28;20028;-76